createdAt,value
2023-03-02T00:00:07.634Z,7.2
2023-03-02T00:06:27.625Z,7.2
2023-03-02T00:12:50.721Z,5
2023-03-02T00:19:10.579Z,5
2023-03-02T00:25:33.704Z,5.3
2023-03-02T00:31:53.691Z,5.3
2023-03-02T00:38:16.747Z,4.5
2023-03-02T00:44:36.747Z,4.5
2023-03-02T00:50:59.583Z,5.4
2023-03-02T00:57:19.624Z,5.4
2023-03-02T01:03:42.674Z,6.3
2023-03-02T01:10:02.501Z,6.3
2023-03-02T01:16:25.703Z,4
2023-03-02T01:22:45.512Z,4
2023-03-02T01:29:08.588Z,5.8
2023-03-02T01:35:28.582Z,5.8
2023-03-02T01:41:51.577Z,2.7
2023-03-02T01:48:11.566Z,2.7
2023-03-02T01:54:34.639Z,2.9
2023-03-02T02:00:54.616Z,2.9
2023-03-02T02:07:17.594Z,5.2
2023-03-02T02:13:37.670Z,5.2
2023-03-02T02:20:00.543Z,4.4
2023-03-02T02:26:20.708Z,4.4
2023-03-02T02:32:43.636Z,4
2023-03-02T02:39:03.545Z,4
2023-03-02T02:45:26.614Z,4.5
2023-03-02T02:51:46.596Z,4.5
2023-03-02T02:58:09.534Z,5.1
2023-03-02T03:04:29.624Z,5.1
2023-03-02T03:10:52.728Z,4.7
2023-03-02T03:17:12.843Z,4.7
2023-03-02T03:23:35.610Z,2.9
2023-03-02T03:29:55.595Z,2.9
2023-03-02T03:36:18.633Z,2.6
2023-03-02T03:42:38.682Z,2.6
2023-03-02T03:49:01.528Z,3.2
2023-03-02T03:55:21.577Z,3.2
2023-03-02T04:01:44.528Z,3.8
2023-03-02T04:17:16.420Z,4.2
2023-03-02T04:23:36.447Z,4.2
2023-03-02T04:29:59.527Z,9.3
2023-03-02T04:36:19.507Z,9.3
2023-03-02T04:42:42.578Z,9.3
2023-03-02T04:49:02.673Z,9.3
2023-03-02T04:55:25.703Z,5.1
2023-03-02T05:01:45.520Z,5.1
2023-03-02T05:08:08.768Z,3.9
2023-03-02T05:14:28.649Z,3.9
2023-03-02T05:20:51.580Z,3.3
2023-03-02T05:27:11.551Z,3.3
2023-03-02T05:33:34.674Z,1.9
2023-03-02T05:39:54.552Z,1.9
2023-03-02T05:46:17.659Z,4
2023-03-02T05:52:37.647Z,4
2023-03-02T05:59:00.582Z,4.7
2023-03-02T06:05:20.514Z,4.7
2023-03-02T06:11:43.723Z,5.5
2023-03-02T06:18:03.539Z,5.5
2023-03-02T06:24:26.511Z,2
2023-03-02T06:30:46.657Z,2
2023-03-02T06:37:09.635Z,4.1
2023-03-02T06:43:29.619Z,4.1
2023-03-02T06:49:52.609Z,2.7
2023-03-02T06:56:12.660Z,2.7
2023-03-02T07:02:35.566Z,2.4
2023-03-02T07:08:55.527Z,2.4
2023-03-02T07:15:18.651Z,3
2023-03-02T07:21:38.665Z,3
2023-03-02T07:28:01.635Z,4.3
2023-03-02T07:34:21.570Z,4.3
2023-03-02T07:40:44.665Z,2.7
2023-03-02T07:47:04.597Z,2.7
2023-03-02T07:53:27.575Z,6
2023-03-02T07:59:47.536Z,6
2023-03-02T08:06:10.722Z,5.7
2023-03-02T08:12:30.507Z,5.7
2023-03-02T08:18:53.637Z,5.5
2023-03-02T08:25:13.596Z,5.5
2023-03-02T08:31:36.908Z,4.1
2023-03-02T08:37:56.513Z,4.1
2023-03-02T08:44:19.530Z,4.6
2023-03-02T08:50:39.654Z,4.6
2023-03-02T08:57:02.631Z,8
2023-03-02T09:20:26.626Z,4.4
2023-03-02T09:26:46.491Z,4.4
2023-03-02T09:33:09.600Z,3.9
2023-03-02T09:39:29.528Z,3.9
2023-03-02T09:45:52.522Z,5.5
2023-03-02T09:52:12.809Z,5.5
2023-03-02T09:58:35.634Z,3.6
2023-03-02T10:04:55.537Z,3.6
2023-03-02T10:11:18.500Z,6.4
2023-03-02T10:17:38.642Z,6.4
2023-03-02T10:24:01.679Z,8.9
2023-03-02T10:30:21.656Z,8.9
2023-03-02T10:36:44.712Z,6.2
2023-03-02T10:43:04.630Z,6.2
2023-03-02T10:49:27.572Z,6.1
2023-03-02T10:55:47.734Z,6.1
2023-03-02T11:02:10.611Z,3.9
2023-03-02T11:08:30.574Z,3.9
2023-03-02T11:14:53.516Z,6
2023-03-02T11:21:13.497Z,6
2023-03-02T11:27:36.592Z,6.7
2023-03-02T11:33:59.790Z,6.7
2023-03-02T11:40:19.753Z,3.7
2023-03-02T11:46:39.669Z,3.7
2023-03-02T11:53:02.659Z,6
2023-03-02T11:59:22.626Z,6
2023-03-02T12:05:45.599Z,6
2023-03-02T12:12:06.250Z,6
2023-03-02T12:18:28.649Z,4.8
2023-03-02T12:24:48.662Z,4.8
2023-03-02T12:31:11.768Z,4.9
2023-03-02T12:37:31.602Z,4.9
2023-03-02T12:43:54.740Z,6.5
2023-03-02T12:50:14.597Z,6.5
2023-03-02T12:56:37.921Z,6.1
2023-03-02T13:02:57.714Z,6.1
2023-03-02T13:09:20.678Z,6.3
2023-03-02T13:15:40.628Z,6.3
2023-03-02T13:22:03.583Z,3.2
2023-03-02T13:28:24.068Z,3.2
2023-03-02T13:34:46.770Z,7
2023-03-02T13:41:06.659Z,7
2023-03-02T13:47:29.615Z,6.7
2023-03-02T13:53:49.492Z,6.7
2023-03-02T14:00:12.514Z,5.2
2023-03-02T14:06:33.039Z,5.2
2023-03-02T14:12:55.585Z,4.1
2023-03-02T14:35:43.092Z,9.7
2023-03-02T14:42:02.499Z,9.7
2023-03-02T14:48:25.539Z,9.7
2023-03-02T14:54:45.590Z,9.7
2023-03-02T15:01:08.524Z,3.5
2023-03-02T15:07:28.568Z,3.5
2023-03-02T15:13:51.598Z,2.7
2023-03-02T15:20:12.013Z,2.7
2023-03-02T15:26:34.611Z,2.6
2023-03-02T15:32:54.649Z,2.6
2023-03-02T15:39:17.513Z,1
2023-03-02T15:45:37.520Z,1
2023-03-02T15:52:00.590Z,1
2023-03-02T15:58:20.581Z,1
2023-03-02T16:04:43.585Z,0.9
2023-03-02T16:11:03.607Z,0.9
2023-03-02T16:17:26.585Z,2.5
2023-03-02T16:23:46.573Z,2.5
2023-03-02T16:30:09.581Z,4.1
2023-03-02T16:36:29.795Z,4.1
2023-03-02T16:42:52.560Z,4.3
2023-03-02T16:49:12.632Z,4.3
2023-03-02T16:55:35.531Z,2.7
2023-03-02T17:01:55.517Z,2.7
2023-03-02T17:08:18.594Z,2.3
2023-03-02T17:14:38.614Z,2.3
2023-03-02T17:21:01.628Z,1.3
2023-03-02T17:27:25.178Z,1.3
2023-03-02T17:33:44.611Z,2.6
2023-03-02T17:40:04.553Z,2.6
2023-03-02T17:46:27.633Z,1.6
2023-03-02T17:52:47.508Z,1.6
2023-03-02T17:59:10.674Z,4.7
2023-03-02T18:05:30.634Z,4.7
2023-03-02T18:11:53.511Z,0.8
2023-03-02T18:18:13.519Z,0.8
2023-03-02T18:24:36.611Z,4.3
2023-03-02T18:30:56.657Z,4.3
2023-03-02T18:37:19.670Z,4.6
2023-03-02T18:43:39.690Z,4.6
2023-03-02T18:50:02.649Z,3.5
2023-03-02T18:56:22.617Z,3.5
2023-03-02T19:02:45.572Z,2.6
2023-03-02T19:09:05.595Z,2.6
2023-03-02T19:15:28.477Z,3.5
2023-03-02T19:21:48.722Z,3.5
2023-03-02T19:28:11.765Z,2.6
2023-03-02T19:43:43.425Z,2.3
2023-03-02T19:50:03.460Z,2.3
2023-03-02T19:56:26.601Z,5.9
2023-03-02T20:02:46.688Z,5.9
2023-03-02T20:09:09.629Z,5.9
2023-03-02T20:15:29.697Z,5.9
2023-03-02T20:21:52.603Z,3.1
2023-03-02T20:28:12.585Z,3.1
2023-03-02T20:34:35.503Z,3.9
2023-03-02T20:40:55.590Z,3.9
2023-03-02T20:47:18.644Z,4.2
2023-03-02T20:53:38.494Z,4.2
2023-03-02T21:00:01.688Z,5.2
2023-03-02T21:06:21.681Z,5.2
2023-03-02T21:12:44.633Z,4
2023-03-02T21:19:04.804Z,4
2023-03-02T21:25:27.686Z,2.9
2023-03-02T21:31:47.878Z,2.9
2023-03-02T21:38:10.877Z,3.4
2023-03-02T21:44:30.810Z,3.4
2023-03-02T21:50:53.528Z,3.6
2023-03-02T21:57:13.627Z,3.6
2023-03-02T22:03:36.595Z,4.9
2023-03-02T22:09:56.758Z,4.9
2023-03-02T22:16:19.639Z,5.5
2023-03-02T22:22:39.560Z,5.5
2023-03-02T22:29:02.683Z,5
2023-03-02T22:35:22.676Z,5
2023-03-02T22:41:45.698Z,6.4
2023-03-02T22:48:05.510Z,6.4
2023-03-02T22:54:28.548Z,3.2
2023-03-02T23:00:48.576Z,3.2
2023-03-02T23:23:46.541Z,10.8
2023-03-02T23:30:06.483Z,10.8
2023-03-02T23:36:29.559Z,10.8
2023-03-02T23:42:49.818Z,10.8
2023-03-02T23:49:12.551Z,4.4
2023-03-02T23:55:32.492Z,4.4
